Time;durP1;ratioP1;P1;durP2;ratioP2;P2;SDS_P1;SDS_P2;PMS_P1;PMS_P2;Temp;Humidity;BMP_temperature;BMP_pressure;BME280_temperature;BME280_humidity;BME280_pressure;Samples;Min_cycle;Max_cycle;Signal;HPM_P1;HPM_P2
2023/05/16 00:01:29;;;;;;;3.30;2.00;;;24.10;51.80;;;;;;5092862;28;20509;-67
2023/05/16 00:03:57;;;;;;;2.50;2.03;;;24.30;52.90;;;;;;5092596;28;20024;-66
2023/05/16 00:06:24;;;;;;;2.63;2.10;;;24.20;52.40;;;;;;5092678;28;20050;-66
2023/05/16 00:08:50;;;;;;;2.03;1.85;;;24.20;52.30;;;;;;5092228;28;20028;-66
2023/05/16 00:11:16;;;;;;;2.00;1.63;;;24.10;52.80;;;;;;5092403;28;20131;-67
2023/05/16 00:13:45;;;;;;;1.73;1.63;;;24.20;53.10;;;;;;5092408;28;20039;-66
2023/05/16 00:16:13;;;;;;;2.70;1.70;;;24.10;52.90;;;;;;5091167;28;20085;-66
2023/05/16 00:18:39;;;;;;;2.17;1.85;;;24.10;53.10;;;;;;5092363;28;20470;-66
2023/05/16 00:21:05;;;;;;;2.08;1.80;;;24.30;53.10;;;;;;5092156;28;20064;-66
2023/05/16 00:23:32;;;;;;;3.85;2.25;;;24.10;53.00;;;;;;5092021;28;20047;-66
2023/05/16 00:25:58;;;;;;;2.38;1.95;;;24.00;52.90;;;;;;5091026;28;20028;-66
2023/05/16 00:28:24;;;;;;;2.05;1.85;;;24.10;53.00;;;;;;5090876;28;20028;-66
2023/05/16 00:30:50;;;;;;;3.25;1.95;;;24.20;53.10;;;;;;5091760;28;20050;-66
2023/05/16 00:33:16;;;;;;;5.63;2.10;;;24.20;53.20;;;;;;5092166;28;20036;-66
2023/05/16 00:35:42;;;;;;;2.92;2.03;;;24.30;53.00;;;;;;5091946;28;20124;-66
2023/05/16 00:38:08;;;;;;;2.35;2.00;;;24.20;51.70;;;;;;5091947;28;20502;-66
2023/05/16 00:40:34;;;;;;;3.40;1.83;;;24.30;53.10;;;;;;5090582;28;20114;-66
2023/05/16 00:43:01;;;;;;;2.55;1.92;;;24.10;52.80;;;;;;5091036;28;20162;-66
2023/05/16 00:45:27;;;;;;;5.32;1.80;;;24.30;53.20;;;;;;5091700;28;20107;-66
2023/05/16 00:47:53;;;;;;;3.40;2.03;;;24.10;52.80;;;;;;5091673;28;20040;-66
2023/05/16 00:50:20;;;;;;;1.85;1.75;;;24.30;53.00;;;;;;5090367;28;20040;-66
2023/05/16 00:52:46;;;;;;;2.38;1.90;;;24.20;53.10;;;;;;5091055;28;20082;-66
2023/05/16 00:55:13;;;;;;;1.77;1.65;;;24.10;52.20;;;;;;5075071;28;20031;-66
2023/05/16 00:57:40;;;;;;;1.98;1.73;;;24.00;53.00;;;;;;5059652;28;20392;-66
2023/05/16 01:00:10;;;;;;;2.00;1.83;;;24.20;53.10;;;;;;5091569;28;20132;-66
2023/05/16 01:02:37;;;;;;;2.25;1.83;;;24.10;52.20;;;;;;5091470;28;20039;-66
2023/05/16 01:05:04;;;;;;;2.80;2.17;;;24.10;52.90;;;;;;5090276;28;20031;-66
2023/05/16 01:07:30;;;;;;;2.25;1.73;;;24.00;50.80;;;;;;5091244;28;20487;-66
2023/05/16 01:09:57;;;;;;;2.38;2.05;;;24.10;53.10;;;;;;5091500;28;20040;-66
2023/05/16 01:12:33;;;;;;;2.20;1.92;;;24.10;53.00;;;;;;5091275;28;20093;-66
2023/05/16 01:15:30;;;;;;;3.47;1.85;;;24.00;53.10;;;;;;5091447;28;20024;-66
2023/05/16 01:18:08;;;;;;;2.63;2.00;;;24.00;53.40;;;;;;5091050;28;20063;-66
2023/05/16 01:20:43;;;;;;;2.75;2.08;;;24.10;53.30;;;;;;5091420;28;20177;-66
2023/05/16 01:23:48;;;;;;;4.35;2.40;;;24.10;53.30;;;;;;5090362;28;20036;-66
2023/05/16 01:26:27;;;;;;;2.13;1.92;;;24.00;52.60;;;;;;5073243;28;20044;-64
2023/05/16 01:28:54;;;;;;;1.88;1.60;;;24.00;53.30;;;;;;5073478;28;20165;-66
2023/05/16 01:31:21;;;;;;;1.80;1.50;;;24.10;52.80;;;;;;5089930;28;20040;-66
2023/05/16 01:33:48;;;;;;;2.13;1.92;;;23.90;52.60;;;;;;5089935;28;20028;-66
2023/05/16 01:36:43;;;;;;;1.92;1.75;;;24.00;52.20;;;;;;5089756;28;20032;-66
2023/05/16 01:39:40;;;;;;;1.60;1.40;;;24.10;53.40;;;;;;5091147;28;20040;-66
2023/05/16 01:42:13;;;;;;;3.40;2.22;;;24.00;53.30;;;;;;5091238;28;20040;-66
2023/05/16 01:44:57;;;;;;;2.28;1.88;;;24.10;52.40;;;;;;5087864;28;20533;-66
2023/05/16 01:47:26;;;;;;;2.13;1.73;;;24.00;52.60;;;;;;5091249;28;20097;-66
2023/05/16 01:50:11;;;;;;;2.72;2.10;;;24.10;51.10;;;;;;5090745;28;20031;-66
2023/05/16 01:52:55;;;;;;;2.33;1.80;;;24.10;53.60;;;;;;5091314;28;20076;-66
2023/05/16 01:55:34;;;;;;;2.40;1.85;;;24.10;52.20;;;;;;5090995;28;20043;-66
2023/05/16 01:58:03;;;;;;;1.70;1.58;;;24.10;53.60;;;;;;5090817;28;20110;-66
2023/05/16 02:00:30;;;;;;;2.10;1.88;;;24.10;53.40;;;;;;5091060;28;20032;-66
2023/05/16 02:02:59;;;;;;;2.55;2.05;;;24.00;52.10;;;;;;5073184;28;20169;-66
2023/05/16 02:05:25;;;;;;;1.98;1.77;;;24.00;53.30;;;;;;5094098;28;20531;-66
2023/05/16 02:07:51;;;;;;;2.20;1.95;;;24.20;53.50;;;;;;5094586;28;20040;-66
2023/05/16 02:10:19;;;;;;;4.28;2.10;;;24.00;53.50;;;;;;5093518;28;20072;-66
2023/05/16 02:12:45;;;;;;;1.83;1.70;;;24.00;52.30;;;;;;5094815;28;20111;-66
2023/05/16 02:15:11;;;;;;;2.15;1.35;;;24.10;53.50;;;;;;5094593;28;20399;-66
2023/05/16 02:17:37;;;;;;;3.03;1.80;;;24.10;53.50;;;;;;5093344;28;20058;-66
2023/05/16 02:20:05;;;;;;;3.35;1.80;;;24.00;53.50;;;;;;5094357;28;20052;-66
2023/05/16 02:22:33;;;;;;;4.72;1.60;;;24.00;52.90;;;;;;5093062;28;20032;-66
2023/05/16 02:25:02;;;;;;;1.75;1.63;;;23.90;53.40;;;;;;5093286;28;20043;-66
2023/05/16 02:27:28;;;;;;;2.22;1.65;;;23.90;53.40;;;;;;5094609;28;20040;-66
2023/05/16 02:29:55;;;;;;;2.35;1.77;;;23.90;53.50;;;;;;5094237;28;20039;-67
2023/05/16 02:32:21;;;;;;;3.95;1.92;;;23.90;53.00;;;;;;5094480;28;20024;-67
2023/05/16 02:34:47;;;;;;;2.50;1.85;;;24.10;53.50;;;;;;5094195;28;20058;-66
2023/05/16 02:37:13;;;;;;;2.15;1.92;;;24.10;53.90;;;;;;5092905;28;20768;-66
2023/05/16 02:39:39;;;;;;;2.60;2.00;;;23.90;53.70;;;;;;5094343;28;20467;-67
2023/05/16 02:42:06;;;;;;;2.50;1.52;;;23.90;53.70;;;;;;5094212;28;20032;-66
2023/05/16 02:44:32;;;;;;;3.00;1.77;;;24.10;53.60;;;;;;5092749;28;20108;-66
2023/05/16 02:46:58;;;;;;;5.75;1.80;;;24.00;53.70;;;;;;5094014;28;20068;-66
2023/05/16 02:49:25;;;;;;;2.17;1.63;;;24.00;53.70;;;;;;5093830;28;20036;-66
2023/05/16 02:51:51;;;;;;;3.15;2.17;;;23.90;53.80;;;;;;5092376;28;20118;-66
2023/05/16 02:54:17;;;;;;;2.10;2.00;;;23.90;54.00;;;;;;5093928;28;20147;-66
2023/05/16 02:56:43;;;;;;;2.38;1.80;;;24.00;54.00;;;;;;5089694;28;20039;-67
2023/05/16 02:59:10;;;;;;;1.65;1.55;;;23.90;54.00;;;;;;5090848;28;20055;-68
2023/05/16 03:01:36;;;;;;;3.22;1.92;;;23.90;54.00;;;;;;5073622;28;20076;-67
2023/05/16 03:04:04;;;;;;;4.72;2.42;;;24.00;54.00;;;;;;5074287;28;20615;-66
2023/05/16 03:06:31;;;;;;;2.15;1.92;;;24.00;54.00;;;;;;5091215;28;20044;-66
2023/05/16 03:08:58;;;;;;;3.05;2.30;;;24.00;54.00;;;;;;5073880;28;20607;-66
2023/05/16 03:11:27;;;;;;;7.07;2.30;;;24.00;54.00;;;;;;5091077;28;20119;-66
2023/05/16 03:13:54;;;;;;;2.13;1.80;;;24.00;54.00;;;;;;5090941;28;20479;-66
2023/05/16 03:16:20;;;;;;;3.20;1.60;;;24.00;54.00;;;;;;5090551;28;20107;-67
2023/05/16 03:18:46;;;;;;;2.00;1.67;;;24.00;54.10;;;;;;5090407;28;20038;-66
2023/05/16 03:21:12;;;;;;;4.75;1.98;;;24.00;54.00;;;;;;5090705;28;20052;-66
2023/05/16 03:23:38;;;;;;;3.10;2.30;;;24.00;53.90;;;;;;5050557;28;20492;-66
2023/05/16 03:26:04;;;;;;;2.08;1.67;;;24.10;53.90;;;;;;5050645;28;20061;-66
2023/05/16 03:28:30;;;;;;;2.10;1.90;;;24.10;53.60;;;;;;5050596;28;20369;-67
2023/05/16 03:30:57;;;;;;;2.85;1.90;;;24.10;53.50;;;;;;5050096;28;20044;-66
2023/05/16 03:33:23;;;;;;;1.65;1.45;;;23.90;53.70;;;;;;5070519;28;20048;-66
2023/05/16 03:35:50;;;;;;;2.05;1.85;;;24.00;53.30;;;;;;5070493;28;20047;-66
2023/05/16 03:38:17;;;;;;;3.80;1.75;;;24.00;53.30;;;;;;5048832;28;20059;-66
2023/05/16 03:40:43;;;;;;;4.15;1.95;;;24.00;52.00;;;;;;5050103;28;20096;-66
2023/05/16 03:43:09;;;;;;;4.40;2.17;;;24.00;52.70;;;;;;5050199;28;20522;-67
2023/05/16 03:45:35;;;;;;;5.97;2.10;;;23.90;51.10;;;;;;5050198;28;20516;-66
2023/05/16 03:48:01;;;;;;;4.63;2.45;;;23.80;53.80;;;;;;5050098;28;20044;-67
2023/05/16 03:50:27;;;;;;;3.63;2.00;;;23.80;52.60;;;;;;5049748;28;20065;-67
2023/05/16 03:52:54;;;;;;;2.38;1.98;;;23.80;53.40;;;;;;5049939;28;20057;-70
2023/05/16 03:55:20;;;;;;;3.80;2.08;;;23.70;53.30;;;;;;5081759;28;20076;-72
2023/05/16 03:57:48;;;;;;;2.83;1.90;;;23.80;55.40;;;;;;5073350;28;20098;-72
2023/05/16 04:00:15;;;;;;;2.88;1.73;;;23.90;55.00;;;;;;5056524;28;20450;-73
2023/05/16 04:02:42;;;;;;;8.85;2.28;;;23.90;54.30;;;;;;5090197;28;20040;-72
2023/05/16 04:05:09;;;;;;;4.32;2.78;;;24.00;53.90;;;;;;5090064;28;20080;-71
2023/05/16 04:07:36;;;;;;;1.50;1.40;;;24.00;54.60;;;;;;5090193;28;20217;-73
2023/05/16 04:10:03;;;;;;;4.93;3.00;;;24.10;53.40;;;;;;5091924;28;20192;-66
2023/05/16 04:12:29;;;;;;;3.15;2.88;;;24.10;47.50;;;;;;5092351;28;20036;-67
2023/05/16 04:14:55;;;;;;;6.90;3.10;;;24.10;46.70;;;;;;5092236;28;20036;-67
2023/05/16 04:17:21;;;;;;;5.68;3.28;;;24.20;46.80;;;;;;5092071;28;20040;-66
2023/05/16 04:19:47;;;;;;;3.22;2.80;;;24.10;46.80;;;;;;5089641;28;20058;-66
2023/05/16 04:22:13;;;;;;;4.15;2.72;;;24.10;46.70;;;;;;5092262;28;20048;-67
2023/05/16 04:24:39;;;;;;;5.80;3.47;;;24.10;48.20;;;;;;5092020;28;20042;-67
2023/05/16 04:27:07;;;;;;;4.13;3.20;;;24.10;47.70;;;;;;5091166;28;20036;-67
2023/05/16 04:29:34;;;;;;;4.43;3.58;;;24.00;48.10;;;;;;5091844;28;20395;-67
2023/05/16 04:32:01;;;;;;;5.93;2.97;;;24.10;48.20;;;;;;5091884;28;20107;-67
2023/05/16 04:34:27;;;;;;;8.18;3.60;;;24.10;48.00;;;;;;5092058;28;20379;-67
2023/05/16 04:36:54;;;;;;;5.70;3.65;;;24.10;48.20;;;;;;5091892;28;20036;-67
2023/05/16 04:39:20;;;;;;;7.65;3.60;;;24.20;48.80;;;;;;5090572;28;20039;-67
2023/05/16 04:41:46;;;;;;;4.05;3.15;;;24.20;48.00;;;;;;5091684;28;20345;-67
2023/05/16 04:44:12;;;;;;;4.75;2.85;;;24.30;47.80;;;;;;5091775;28;20135;-66
2023/05/16 04:46:38;;;;;;;3.90;2.90;;;24.30;48.40;;;;;;5090352;28;20073;-65
2023/05/16 04:49:05;;;;;;;3.03;2.72;;;24.20;48.20;;;;;;5091636;28;20088;-66
2023/05/16 04:51:32;;;;;;;5.20;3.70;;;24.20;47.00;;;;;;5090412;28;20040;-67
2023/05/16 04:53:59;;;;;;;4.05;2.20;;;24.30;50.40;;;;;;5064183;28;20029;-66
2023/05/16 04:56:25;;;;;;;8.43;2.28;;;24.20;55.40;;;;;;5071367;28;20025;-66
2023/05/16 04:58:52;;;;;;;3.60;1.90;;;24.40;56.00;;;;;;5071343;28;20050;-67
2023/05/16 05:01:18;;;;;;;2.70;2.10;;;24.40;55.80;;;;;;5088476;28;20040;-66
2023/05/16 05:03:44;;;;;;;4.82;2.85;;;24.40;54.90;;;;;;5091368;28;20325;-67
2023/05/16 05:06:10;;;;;;;3.65;2.42;;;24.30;54.80;;;;;;5091618;28;20081;-67
2023/05/16 05:08:36;;;;;;;3.35;2.30;;;24.40;54.90;;;;;;5108910;28;20051;-66
2023/05/16 05:11:02;;;;;;;10.38;2.85;;;24.40;53.40;;;;;;5109138;28;20046;-66
2023/05/16 05:13:28;;;;;;;4.28;2.42;;;24.30;52.20;;;;;;5109212;28;20039;-66
2023/05/16 05:15:54;;;;;;;4.32;2.55;;;24.30;55.80;;;;;;5109299;28;20356;-66
2023/05/16 05:18:20;;;;;;;4.13;2.22;;;24.30;56.90;;;;;;5108821;28;20040;-65
2023/05/16 05:20:46;;;;;;;4.28;2.42;;;24.40;56.00;;;;;;5109089;28;20051;-65
2023/05/16 05:23:12;;;;;;;2.42;2.22;;;24.40;53.60;;;;;;5109122;28;20178;-63
2023/05/16 05:25:38;;;;;;;4.88;2.20;;;24.30;55.90;;;;;;5109011;28;20475;-66
2023/05/16 05:28:04;;;;;;;3.70;1.60;;;24.30;56.70;;;;;;5108953;28;20456;-66
2023/05/16 05:30:31;;;;;;;4.25;2.50;;;24.30;54.60;;;;;;5108782;28;20073;-66
2023/05/16 05:32:57;;;;;;;3.10;2.28;;;24.30;51.80;;;;;;5108975;28;20027;-66
2023/05/16 05:35:23;;;;;;;3.13;2.83;;;24.30;53.30;;;;;;5108912;28;20055;-66
2023/05/16 05:37:49;;;;;;;2.60;2.33;;;24.30;52.20;;;;;;5109417;28;20093;-66
2023/05/16 05:40:15;;;;;;;5.75;2.50;;;24.30;52.40;;;;;;5097342;28;20138;-66
2023/05/16 05:42:41;;;;;;;2.05;1.90;;;24.40;52.00;;;;;;5075788;28;20040;-66
2023/05/16 05:45:07;;;;;;;3.13;2.60;;;24.30;51.40;;;;;;5091150;28;20048;-66
2023/05/16 05:47:34;;;;;;;2.65;2.17;;;24.50;51.10;;;;;;5075868;28;20040;-66
2023/05/16 05:50:00;;;;;;;4.70;2.15;;;24.30;50.40;;;;;;5092533;28;20202;-66
2023/05/16 05:52:27;;;;;;;3.60;2.63;;;24.40;49.80;;;;;;5092542;28;20101;-66
2023/05/16 05:54:53;;;;;;;4.70;2.70;;;24.30;49.70;;;;;;5092647;28;20705;-66
2023/05/16 05:57:20;;;;;;;5.53;2.20;;;24.40;48.50;;;;;;5087974;28;20024;-66
2023/05/16 05:59:46;;;;;;;2.00;1.80;;;24.50;47.00;;;;;;5092126;28;20055;-67
2023/05/16 06:02:12;;;;;;;2.10;1.90;;;24.30;46.90;;;;;;5092398;28;20040;-67
2023/05/16 06:04:38;;;;;;;6.07;2.70;;;24.50;47.20;;;;;;5092597;28;20522;-66
2023/05/16 06:07:04;;;;;;;3.38;2.17;;;24.30;47.70;;;;;;5090081;28;20112;-67
2023/05/16 06:09:31;;;;;;;3.97;2.17;;;24.30;48.10;;;;;;5075053;28;20500;-66
2023/05/16 06:11:57;;;;;;;6.00;2.35;;;24.30;48.80;;;;;;5072352;28;20048;-67
2023/05/16 06:14:23;;;;;;;5.18;2.70;;;24.30;48.70;;;;;;5072100;28;20068;-66
2023/05/16 06:16:49;;;;;;;2.85;2.40;;;24.40;51.00;;;;;;5086401;28;20143;-66
2023/05/16 06:19:15;;;;;;;3.30;3.10;;;24.60;54.00;;;;;;5091729;28;20055;-67
2023/05/16 06:21:42;;;;;;;5.78;2.53;;;25.00;55.70;;;;;;5092301;28;20036;-67
2023/05/16 06:24:08;;;;;;;6.38;2.85;;;24.90;52.20;;;;;;5092170;28;20032;-66
2023/05/16 06:26:35;;;;;;;3.78;2.13;;;24.90;51.80;;;;;;5075220;28;20039;-66
2023/05/16 06:29:01;;;;;;;6.95;2.45;;;24.90;51.60;;;;;;5091734;28;20177;-67
2023/05/16 06:31:27;;;;;;;2.42;1.70;;;24.90;52.10;;;;;;5054838;28;20040;-67
2023/05/16 06:33:53;;;;;;;4.30;2.70;;;24.80;52.20;;;;;;5071750;28;20536;-66
2023/05/16 06:36:19;;;;;;;7.20;2.20;;;24.70;52.50;;;;;;5071906;28;20127;-65
2023/05/16 06:38:45;;;;;;;5.03;2.22;;;24.80;51.50;;;;;;5073794;28;20036;-67
2023/05/16 06:41:11;;;;;;;2.75;2.35;;;24.80;52.60;;;;;;5073621;28;20086;-68
2023/05/16 06:43:39;;;;;;;2.08;1.88;;;25.00;52.90;;;;;;5089254;28;20043;-67
2023/05/16 06:46:05;;;;;;;5.53;2.20;;;24.80;53.20;;;;;;5072471;28;20403;-67
2023/05/16 06:48:31;;;;;;;2.83;2.05;;;24.80;53.60;;;;;;5073913;28;20090;-67
2023/05/16 06:50:57;;;;;;;4.40;2.10;;;24.70;52.90;;;;;;5073205;28;20041;-67
2023/05/16 06:53:23;;;;;;;6.85;3.03;;;24.90;53.20;;;;;;5076877;28;20038;-68
2023/05/16 06:55:50;;;;;;;2.92;2.10;;;24.70;48.30;;;;;;5092733;28;20035;-66
2023/05/16 06:58:16;;;;;;;6.35;2.67;;;24.80;50.30;;;;;;5090669;28;20089;-65
2023/05/16 07:00:42;;;;;;;2.85;2.03;;;24.80;48.60;;;;;;5093933;28;20032;-67
2023/05/16 07:03:08;;;;;;;2.70;2.33;;;24.80;50.40;;;;;;5094074;28;20063;-67
2023/05/16 07:05:35;;;;;;;1.02;0.80;;;24.80;51.10;;;;;;5089002;28;20059;-67
2023/05/16 07:08:01;;;;;;;4.82;2.70;;;24.70;53.70;;;;;;5073075;28;20039;-67
2023/05/16 07:10:27;;;;;;;3.72;2.15;;;24.80;54.40;;;;;;5071987;28;20044;-67
2023/05/16 07:12:54;;;;;;;2.65;2.30;;;24.80;53.60;;;;;;5073066;28;20055;-67
2023/05/16 07:15:20;;;;;;;3.92;2.53;;;24.90;54.90;;;;;;5073329;28;20037;-67
2023/05/16 07:17:46;;;;;;;2.72;2.17;;;24.90;53.80;;;;;;5073038;28;20032;-67
2023/05/16 07:20:13;;;;;;;2.70;2.38;;;24.80;55.90;;;;;;5072821;28;20052;-68
2023/05/16 07:22:39;;;;;;;2.60;1.83;;;24.80;56.10;;;;;;5071791;28;20123;-67
2023/05/16 07:25:11;;;;;;;4.22;2.22;;;24.70;53.30;;;;;;5072993;28;20553;-67
2023/05/16 07:27:40;;;;;;;4.10;1.90;;;24.80;53.30;;;;;;5071736;28;20480;-68
2023/05/16 07:30:08;;;;;;;2.25;2.05;;;24.80;52.60;;;;;;5054914;28;20048;-67
2023/05/16 07:32:34;;;;;;;4.07;1.90;;;24.70;52.40;;;;;;5073041;28;20498;-66
2023/05/16 07:35:00;;;;;;;3.08;2.45;;;24.70;51.40;;;;;;5073017;28;20032;-67
2023/05/16 07:37:26;;;;;;;5.85;2.20;;;24.70;51.00;;;;;;5072965;28;20422;-67
2023/05/16 07:39:52;;;;;;;2.13;1.90;;;24.70;48.40;;;;;;5072940;28;20040;-67
2023/05/16 07:42:18;;;;;;;2.28;1.92;;;24.90;51.20;;;;;;5072543;28;20039;-66
2023/05/16 07:44:45;;;;;;;2.35;1.88;;;24.80;51.20;;;;;;5072523;28;20082;-66
2023/05/16 07:47:11;;;;;;;6.07;1.58;;;24.90;49.80;;;;;;5072490;28;20395;-66
2023/05/16 07:49:37;;;;;;;4.13;2.40;;;24.90;51.30;;;;;;5072558;28;20047;-66
2023/05/16 07:52:03;;;;;;;2.45;2.00;;;24.90;52.10;;;;;;5073365;28;20500;-66
2023/05/16 07:54:30;;;;;;;6.60;2.70;;;24.90;50.50;;;;;;5093851;28;20285;-67
2023/05/16 07:56:56;;;;;;;3.38;2.05;;;24.90;48.90;;;;;;5110631;28;20054;-65
2023/05/16 07:59:22;;;;;;;1.60;1.50;;;24.90;48.20;;;;;;5110321;28;20039;-65
2023/05/16 08:01:48;;;;;;;5.00;1.50;;;25.00;51.40;;;;;;5092595;28;20050;-66
2023/05/16 08:04:14;;;;;;;0.90;0.90;;;25.00;51.00;;;;;;5110504;28;20043;-65
2023/05/16 08:06:40;;;;;;;1.80;1.70;;;24.90;53.20;;;;;;5096342;28;20115;-66
2023/05/16 08:09:08;;;;;;;6.18;1.92;;;25.00;53.70;;;;;;5089902;28;20054;-67
2023/05/16 08:11:35;;;;;;;1.13;1.13;;;25.00;51.60;;;;;;5090060;28;20421;-66
2023/05/16 08:14:01;;;;;;;4.75;1.70;;;25.00;52.70;;;;;;5089587;28;20048;-67
2023/05/16 08:16:26;;;;;;;8.48;3.30;;;25.00;52.60;;;;;;5089843;28;20035;-66
2023/05/16 08:18:52;;;;;;;1.77;1.58;;;25.10;51.70;;;;;;5089379;28;20169;-66
2023/05/16 08:21:18;;;;;;;1.27;0.90;;;24.90;51.30;;;;;;5089634;28;20415;-65
2023/05/16 08:23:45;;;;;;;3.70;2.00;;;24.90;51.20;;;;;;5089714;28;20151;-67
2023/05/16 08:26:11;;;;;;;2.22;1.52;;;25.00;51.30;;;;;;5091790;28;20115;-66
2023/05/16 08:28:37;;;;;;;1.10;1.10;;;24.90;51.20;;;;;;5092091;28;20024;-68
2023/05/16 08:31:03;;;;;;;3.45;1.42;;;25.00;50.90;;;;;;5090868;28;20385;-67
2023/05/16 08:33:29;;;;;;;2.83;1.75;;;25.00;50.70;;;;;;5092122;28;20028;-67
2023/05/16 08:35:55;;;;;;;2.25;2.00;;;25.00;51.20;;;;;;5092348;28;20032;-67
2023/05/16 08:38:21;;;;;;;3.03;1.52;;;25.00;50.90;;;;;;5091930;28;20024;-66
2023/05/16 08:40:47;;;;;;;3.33;2.10;;;25.10;49.60;;;;;;5091857;28;20040;-67
2023/05/16 08:43:13;;;;;;;2.70;1.60;;;24.90;49.40;;;;;;5091979;28;20024;-65
2023/05/16 08:45:43;;;;;;;4.82;2.30;;;25.00;50.60;;;;;;5090719;28;20160;-65
2023/05/16 08:48:10;;;;;;;2.10;1.70;;;25.00;53.90;;;;;;5091730;28;20114;-67
2023/05/16 08:50:36;;;;;;;4.22;1.75;;;25.00;53.00;;;;;;5090247;28;20036;-69
2023/05/16 08:53:06;;;;;;;4.97;3.25;;;25.20;52.40;;;;;;5091902;28;20036;-68
2023/05/16 08:55:34;;;;;;;2.30;2.10;;;25.00;51.60;;;;;;5088806;28;20555;-68
2023/05/16 08:58:00;;;;;;;4.25;2.30;;;25.50;50.50;;;;;;5091544;28;20070;-66
2023/05/16 09:00:27;;;;;;;3.17;1.98;;;25.40;52.10;;;;;;5091358;28;20043;-66
2023/05/16 09:02:54;;;;;;;4.15;2.40;;;25.50;52.80;;;;;;5091773;28;20368;-67
2023/05/16 09:05:22;;;;;;;3.10;2.38;;;25.70;50.10;;;;;;5091674;28;20031;-67
2023/05/16 09:07:49;;;;;;;5.90;2.55;;;25.50;48.80;;;;;;5090308;28;20115;-67
2023/05/16 09:10:15;;;;;;;3.83;2.38;;;25.40;48.30;;;;;;5091027;28;20077;-67
2023/05/16 09:12:42;;;;;;;3.85;2.90;;;25.40;48.40;;;;;;5085697;28;20043;-67
2023/05/16 09:15:12;;;;;;;3.45;2.25;;;25.30;48.10;;;;;;5088428;28;20027;-68
2023/05/16 09:17:41;;;;;;;3.42;2.10;;;25.30;48.80;;;;;;5091254;28;20059;-67
2023/05/16 09:20:15;;;;;;;6.18;2.55;;;25.30;48.90;;;;;;5091244;28;20083;-67
2023/05/16 09:22:56;;;;;;;3.20;2.28;;;25.30;48.80;;;;;;5090255;28;20028;-67
2023/05/16 09:25:27;;;;;;;3.33;2.42;;;25.30;49.50;;;;;;5091410;28;20065;-67
2023/05/16 09:27:54;;;;;;;2.95;2.65;;;25.40;49.00;;;;;;5091554;28;20457;-66
2023/05/16 09:30:25;;;;;;;4.00;1.67;;;25.30;48.70;;;;;;5091149;28;20329;-66
2023/05/16 09:32:52;;;;;;;3.40;2.13;;;25.20;48.40;;;;;;5091220;28;20111;-66
2023/05/16 09:35:20;;;;;;;4.00;2.00;;;25.20;49.40;;;;;;5091253;28;20471;-65
2023/05/16 09:37:47;;;;;;;4.00;2.40;;;25.20;50.70;;;;;;5090849;28;20088;-66
2023/05/16 09:40:14;;;;;;;2.78;2.50;;;25.20;50.20;;;;;;5072712;28;20032;-66
2023/05/16 09:42:41;;;;;;;4.22;2.10;;;25.20;49.00;;;;;;5091029;28;20066;-66
2023/05/16 09:45:11;;;;;;;2.63;2.10;;;25.10;49.00;;;;;;5090988;28;20024;-66
2023/05/16 09:47:44;;;;;;;6.80;2.55;;;25.30;49.10;;;;;;5072243;28;20415;-66
2023/05/16 09:50:12;;;;;;;;;;;25.30;48.80;;;;;;5091435;28;20036;-66
2023/05/16 09:52:38;;;;;;;4.57;1.83;;;25.30;50.90;;;;;;5076804;28;19919;-66
2023/05/16 09:55:08;;;;;;;3.40;1.95;;;25.40;49.60;;;;;;5070864;28;20091;-67
2023/05/16 09:57:39;;;;;;;5.30;2.17;;;25.40;49.50;;;;;;5069917;28;20024;-66
2023/05/16 10:00:10;;;;;;;4.90;2.40;;;25.40;49.50;;;;;;5070600;28;20047;-66
2023/05/16 10:02:40;;;;;;;7.63;2.53;;;25.40;49.30;;;;;;5070890;28;20040;-65
2023/05/16 10:05:07;;;;;;;6.40;1.95;;;25.30;49.30;;;;;;5071343;28;20040;-66
2023/05/16 10:07:33;;;;;;;4.35;2.30;;;25.40;50.10;;;;;;5086771;28;20079;-65
2023/05/16 10:10:04;;;;;;;3.55;2.50;;;25.40;50.50;;;;;;5092954;28;20044;-66
2023/05/16 10:12:31;;;;;;;4.43;2.90;;;25.40;47.20;;;;;;5094807;28;20032;-68
2023/05/16 10:15:00;;;;;;;3.08;2.50;;;25.50;50.80;;;;;;5098422;28;20019;-67
2023/05/16 10:17:30;;;;;;;3.88;2.00;;;26.00;54.50;;;;;;5106879;28;20051;-67
2023/05/16 10:20:02;;;;;;;8.77;2.10;;;26.20;52.60;;;;;;5104120;28;20131;-68
2023/05/16 10:22:31;;;;;;;5.35;1.80;;;26.10;53.90;;;;;;5106484;28;20064;-67
2023/05/16 10:25:32;;;;;;;3.15;1.65;;;26.00;54.00;;;;;;5111677;28;20027;-67
2023/05/16 10:27:59;;;;;;;5.60;2.20;;;25.80;53.00;;;;;;5091822;28;20413;-68
2023/05/16 10:30:25;;;;;;;2.25;1.83;;;26.00;58.80;;;;;;5091650;28;20464;-67
2023/05/16 10:32:52;;;;;;;5.90;2.22;;;26.50;64.10;;;;;;5074790;28;20044;-68
2023/05/16 10:35:20;;;;;;;3.65;2.42;;;26.70;66.30;;;;;;5091930;28;20436;-68
2023/05/16 10:37:48;;;;;;;4.97;2.17;;;27.00;57.00;;;;;;5054285;28;20080;-68
2023/05/16 10:40:15;;;;;;;7.65;2.22;;;26.70;53.80;;;;;;5051604;28;20036;-68
2023/05/16 10:42:54;;;;;;;6.47;1.88;;;26.50;53.20;;;;;;5051820;28;20439;-68
2023/05/16 10:45:23;;;;;;;5.40;2.22;;;26.30;53.10;;;;;;5035060;28;20127;-69
2023/05/16 10:47:57;;;;;;;2.60;2.17;;;26.20;52.10;;;;;;5051646;28;20048;-68
2023/05/16 10:50:50;;;;;;;4.05;1.67;;;26.10;53.00;;;;;;5051177;28;20067;-67
2023/05/16 10:53:22;;;;;;;2.08;1.92;;;26.20;53.30;;;;;;5011449;28;20042;-68
2023/05/16 10:56:00;;;;;;;2.38;2.13;;;26.30;57.00;;;;;;5011345;28;20110;-68
2023/05/16 10:58:33;;;;;;;5.97;2.30;;;26.60;60.30;;;;;;5011796;28;20177;-67
2023/05/16 11:01:18;;;;;;;2.03;1.83;;;26.70;60.20;;;;;;5024591;28;20495;-67
2023/05/16 11:03:59;;;;;;;4.90;2.55;;;26.80;60.10;;;;;;5014430;28;20181;-68
2023/05/16 11:06:41;;;;;;;3.10;2.10;;;26.90;60.00;;;;;;5034425;28;20049;-68
2023/05/16 11:09:10;;;;;;;8.10;1.93;;;26.80;50.90;;;;;;5050428;28;20044;-67
2023/05/16 11:11:45;;;;;;;2.45;1.92;;;26.60;53.10;;;;;;5050653;28;20049;-67
2023/05/16 11:14:38;;;;;;;3.38;2.30;;;26.60;53.80;;;;;;5050897;28;20040;-67
2023/05/16 11:17:23;;;;;;;7.05;2.33;;;26.50;54.50;;;;;;5031994;28;20039;-68
2023/05/16 11:19:58;;;;;;;2.17;1.63;;;26.50;53.10;;;;;;5050230;28;20053;-67
2023/05/16 11:22:25;;;;;;;5.53;2.30;;;26.50;53.20;;;;;;5050809;28;20033;-67
2023/05/16 11:25:00;;;;;;;2.80;2.17;;;26.50;52.80;;;;;;5050587;28;20056;-67
2023/05/16 11:27:34;;;;;;;3.28;2.20;;;26.40;51.70;;;;;;5050698;28;20045;-68
2023/05/16 11:30:09;;;;;;;4.20;2.40;;;26.30;52.60;;;;;;5070297;28;20052;-68
2023/05/16 11:32:37;;;;;;;6.55;2.38;;;26.40;52.10;;;;;;5093232;28;20110;-68
2023/05/16 11:35:06;;;;;;;4.18;1.90;;;26.30;49.80;;;;;;5093469;28;20063;-68
2023/05/16 11:37:32;;;;;;;4.93;2.20;;;26.30;50.90;;;;;;5093027;28;20047;-67
2023/05/16 11:40:03;;;;;;;5.40;2.67;;;26.20;49.20;;;;;;5090390;28;20096;-67
2023/05/16 11:42:46;;;;;;;2.30;1.88;;;26.20;48.80;;;;;;5090412;28;20047;-67
2023/05/16 11:45:15;;;;;;;5.68;2.70;;;26.20;52.60;;;;;;5090564;28;20127;-70
2023/05/16 11:47:43;;;;;;;6.90;2.50;;;26.10;52.20;;;;;;5090364;28;20035;-70
2023/05/16 11:50:23;;;;;;;3.70;1.90;;;26.10;51.30;;;;;;5090133;28;20055;-69
2023/05/16 11:52:55;;;;;;;4.10;2.10;;;26.10;51.70;;;;;;5083325;28;20414;-69
2023/05/16 11:55:24;;;;;;;4.03;2.25;;;26.10;51.90;;;;;;5070308;28;20064;-70
2023/05/16 11:57:51;;;;;;;3.83;2.55;;;26.10;49.00;;;;;;5081659;28;20036;-72
2023/05/16 12:00:23;;;;;;;2.63;2.00;;;25.90;48.20;;;;;;5089965;28;20422;-69
2023/05/16 12:02:49;;;;;;;2.80;1.75;;;26.00;50.10;;;;;;5073384;28;20032;-71
2023/05/16 12:05:17;;;;;;;5.43;1.70;;;25.90;49.70;;;;;;5090082;28;20056;-73
2023/05/16 12:07:44;;;;;;;0.40;0.40;;;26.00;52.70;;;;;;5090083;28;20032;-68
2023/05/16 12:10:13;;;;;;;2.30;1.98;;;26.00;58.20;;;;;;5090135;28;20052;-67
2023/05/16 12:12:41;;;;;;;7.57;1.90;;;26.40;57.10;;;;;;5092363;28;20032;-69
2023/05/16 12:15:08;;;;;;;2.13;1.92;;;27.00;56.40;;;;;;5092693;28;20043;-67
2023/05/16 12:17:36;;;;;;;3.15;2.10;;;27.30;53.40;;;;;;5091044;28;20040;-67
2023/05/16 12:20:05;;;;;;;6.32;1.48;;;27.00;52.60;;;;;;5090976;28;20130;-71
2023/05/16 12:22:33;;;;;;;2.80;2.22;;;26.80;52.70;;;;;;5092738;28;20411;-72
2023/05/16 12:25:17;;;;;;;6.45;2.08;;;26.80;52.50;;;;;;5072704;28;20048;-71
2023/05/16 12:27:43;;;;;;;2.45;1.63;;;26.60;48.30;;;;;;5090118;28;20268;-70
2023/05/16 12:30:10;;;;;;;2.38;1.92;;;26.50;49.70;;;;;;5089530;28;20051;-68
2023/05/16 12:32:36;;;;;;;1.63;1.52;;;26.40;49.60;;;;;;5089733;28;20129;-68
2023/05/16 12:35:02;;;;;;;1.45;1.25;;;26.70;49.90;;;;;;5089283;28;20036;-70
2023/05/16 12:37:28;;;;;;;4.55;1.63;;;26.70;47.60;;;;;;5089473;28;20044;-75
2023/05/16 12:40:01;;;;;;;3.38;3.03;;;26.70;47.30;;;;;;5072892;28;20040;-73
2023/05/16 12:42:27;;;;;;;3.88;1.80;;;26.90;51.60;;;;;;5089076;28;20048;-71
2023/05/16 12:44:55;;;;;;;1.63;1.52;;;26.90;48.50;;;;;;5089305;28;20043;-71
2023/05/16 12:47:21;;;;;;;5.15;1.52;;;26.80;48.50;;;;;;5085642;28;20036;-71
2023/05/16 12:49:50;;;;;;;2.42;1.88;;;26.70;47.50;;;;;;5089013;28;20052;-69
2023/05/16 12:52:20;;;;;;;3.53;2.13;;;26.70;47.60;;;;;;5089335;28;20051;-69
2023/05/16 12:54:47;;;;;;;1.88;1.52;;;26.70;47.60;;;;;;5088993;28;20510;-69